createdAt,value
2018-06-30T00:00:07.071Z,5.33
2018-06-30T00:02:35.430Z,5.00
2018-06-30T00:05:03.778Z,5.50
2018-06-30T00:07:32.154Z,4.83
2018-06-30T00:10:00.505Z,5.50
2018-06-30T00:12:28.940Z,5.40
2018-06-30T00:37:11.242Z,7.63
2018-06-30T00:39:39.598Z,6.27
2018-06-30T00:42:07.938Z,7.70
2018-06-30T00:44:36.306Z,7.67
2018-06-30T00:47:04.632Z,7.33
2018-06-30T00:49:32.955Z,7.40
2018-06-30T00:52:01.271Z,8.10
2018-06-30T00:54:29.588Z,7.75
2018-06-30T01:06:48.159Z,8.07
2018-06-30T01:09:16.454Z,8.60
2018-06-30T01:11:44.818Z,9.60
2018-06-30T01:33:53.691Z,11.10
2018-06-30T01:36:22.032Z,9.90
2018-06-30T01:38:50.379Z,11.40
2018-06-30T01:41:18.546Z,10.93
2018-06-30T01:46:14.366Z,11.90
2018-06-30T01:48:42.768Z,11.73
2018-06-30T01:51:11.077Z,13.37
2018-06-30T01:53:39.406Z,13.07
2018-06-30T01:56:07.790Z,12.90
2018-06-30T01:58:36.102Z,12.70
2018-06-30T02:01:04.463Z,13.70
2018-06-30T02:03:32.815Z,12.87
2018-06-30T02:06:01.134Z,13.77
2018-06-30T02:15:52.010Z,14.60
2018-06-30T02:18:20.351Z,15.15
2018-06-30T02:20:48.668Z,14.73
2018-06-30T02:23:17.006Z,15.03
2018-06-30T02:25:45.362Z,16.00
2018-06-30T02:28:13.731Z,15.90
2018-06-30T02:47:54.838Z,17.80
2018-06-30T02:50:23.155Z,16.97
2018-06-30T02:52:51.486Z,16.80
2018-06-30T02:55:19.924Z,16.25
2018-06-30T02:57:48.314Z,18.13
2018-06-30T03:00:16.622Z,15.80
2018-06-30T03:02:44.957Z,18.80
2018-06-30T03:05:13.259Z,17.40
2018-06-30T03:07:41.843Z,18.90
2018-06-30T03:10:10.175Z,19.70
2018-06-30T03:12:38.500Z,18.07
2018-06-30T03:15:06.854Z,18.60
2018-06-30T03:17:35.214Z,18.17
2018-06-30T03:20:03.616Z,19.87
2018-06-30T03:22:31.966Z,18.97
2018-06-30T03:25:00.350Z,19.37
2018-06-30T03:27:28.700Z,19.80
2018-06-30T03:29:57.055Z,19.07
2018-06-30T03:32:25.406Z,19.80
2018-06-30T03:34:53.973Z,20.23
2018-06-30T03:37:22.307Z,19.20
2018-06-30T03:39:50.633Z,20.27
2018-06-30T03:42:18.750Z,20.47
2018-06-30T03:44:47.262Z,21.57
2018-06-30T03:47:15.598Z,20.10
2018-06-30T03:49:43.946Z,20.60
2018-06-30T03:52:12.290Z,19.43
2018-06-30T03:54:40.405Z,21.23
2018-06-30T03:57:08.806Z,19.10
2018-06-30T03:59:37.163Z,20.37
2018-06-30T04:02:05.598Z,20.80
2018-06-30T04:04:34.014Z,19.63
2018-06-30T04:07:02.327Z,19.53
2018-06-30T04:09:30.673Z,20.10
2018-06-30T04:11:58.996Z,20.13
2018-06-30T04:14:27.324Z,21.57
2018-06-30T04:16:55.751Z,20.40
2018-06-30T04:19:24.084Z,20.33
2018-06-30T04:21:52.419Z,20.17
2018-06-30T04:24:20.530Z,20.97
2018-06-30T04:26:48.831Z,21.17
2018-06-30T04:29:17.196Z,21.87
2018-06-30T04:31:45.534Z,20.30
2018-06-30T04:34:13.574Z,19.60
2018-06-30T04:36:41.879Z,20.20
2018-06-30T04:39:10.662Z,20.80
2018-06-30T04:41:38.985Z,21.50
2018-06-30T04:44:07.398Z,20.23
2018-06-30T04:46:35.730Z,20.93
2018-06-30T04:49:04.090Z,20.83
2018-06-30T04:51:32.415Z,21.90
2018-06-30T12:05:23.770Z,5.63
2018-06-30T12:07:52.099Z,5.97
2018-06-30T12:10:20.178Z,6.40
2018-06-30T12:12:48.282Z,5.93
2018-06-30T12:15:16.653Z,6.13
2018-06-30T12:17:44.959Z,5.93
2018-06-30T12:20:13.377Z,5.30
2018-06-30T12:22:41.521Z,4.50
2018-06-30T12:25:09.802Z,6.00
2018-06-30T12:27:38.175Z,5.00
2018-06-30T12:30:07.683Z,4.93
2018-06-30T12:32:36.120Z,5.60
2018-06-30T12:35:04.594Z,9.90
2018-06-30T12:37:32.950Z,6.37
2018-06-30T12:40:01.038Z,5.57
2018-06-30T12:42:29.422Z,5.23
2018-06-30T12:44:57.810Z,4.90
2018-06-30T12:47:26.131Z,5.53
2018-06-30T12:49:54.758Z,4.60
2018-06-30T12:52:23.056Z,4.70
2018-06-30T12:54:51.409Z,5.37
2018-06-30T16:46:18.246Z,6.30
2018-06-30T16:48:46.588Z,6.50
2018-06-30T16:51:14.634Z,5.70
2018-06-30T16:53:43.178Z,6.60
2018-06-30T16:56:11.500Z,5.90
2018-06-30T16:58:39.888Z,6.63
2018-06-30T20:58:10.273Z,3.57
2018-06-30T21:00:39.099Z,3.03
2018-06-30T21:03:08.038Z,3.30
2018-06-30T21:10:37.080Z,4.50
2018-06-30T21:13:06.562Z,4.23
2018-06-30T21:15:35.436Z,4.80
2018-06-30T21:23:26.654Z,4.10
2018-06-30T21:25:58.240Z,4.50
2018-06-30T21:28:26.583Z,3.30
2018-06-30T23:02:39.643Z,1.90
2018-06-30T23:05:08.560Z,1.83
2018-06-30T23:07:37.024Z,1.90
2018-06-30T23:10:05.994Z,1.80
2018-06-30T23:12:34.557Z,2.13
2018-06-30T23:15:02.927Z,2.20
2018-06-30T23:17:31.531Z,1.77
2018-06-30T23:19:59.943Z,1.77
2018-06-30T23:23:09.975Z,1.90
